Time;durP1;ratioP1;P1;durP2;ratioP2;P2;SDS_P1;SDS_P2;PMS_P1;PMS_P2;Temp;Humidity;BMP_temperature;BMP_pressure;BME280_temperature;BME280_humidity;BME280_pressure;Samples;Min_cycle;Max_cycle;Signal;HPM_P1;HPM_P2
2022/11/04 00:01:52;;;;;;;25.23;17.63;;;11.20;99.90;;;;;;5006043;28;20102;-56
2022/11/04 00:04:19;;;;;;;22.38;18.52;;;10.80;99.90;;;;;;5001164;28;20061;-56
2022/11/04 00:06:46;;;;;;;23.85;18.98;;;11.00;99.90;;;;;;5003337;28;20042;-56
2022/11/04 00:09:20;;;;;;;14.25;12.75;;;11.80;99.90;;;;;;5003823;28;20048;-54
2022/11/04 00:14:32;;;;;;;13.93;11.38;;;12.00;99.90;;;;;;5003046;28;20053;-56
2022/11/04 00:33:24;;;;;;;8.63;4.35;;;10.80;99.90;;;;;;5004265;28;20052;-56
2022/11/04 00:33:43;;;;;;;6.47;2.70;;;10.70;99.90;;;;;;5005310;28;20677;-56
2022/11/04 00:36:09;;;;;;;3.80;1.90;;;12.10;99.90;;;;;;5006915;28;20311;-56
2022/11/04 00:38:34;;;;;;;3.45;1.50;;;10.70;99.90;;;;;;5005810;28;20038;-56
2022/11/04 00:41:00;;;;;;;4.70;2.05;;;10.50;99.90;;;;;;5005181;28;20050;-56
2022/11/04 00:43:26;;;;;;;3.88;1.60;;;10.50;99.90;;;;;;5008466;28;20049;-56
2022/11/04 00:45:51;;;;;;;5.93;1.40;;;10.60;99.90;;;;;;5005691;28;20048;-54
2022/11/04 00:48:17;;;;;;;3.53;1.33;;;11.40;99.90;;;;;;5005279;28;20315;-54
2022/11/04 00:50:43;;;;;;;6.40;1.33;;;10.40;99.90;;;;;;5002246;28;20046;-56
2022/11/04 00:53:08;;;;;;;4.30;1.33;;;10.40;99.90;;;;;;5004923;28;20128;-56
2022/11/04 00:55:34;;;;;;;4.03;1.20;;;10.40;99.90;;;;;;5006106;28;20044;-56
2022/11/04 00:58:00;;;;;;;2.58;1.08;;;12.50;99.90;;;;;;5007833;28;20386;-56
2022/11/04 01:00:26;;;;;;;2.40;0.98;;;11.90;99.90;;;;;;5004944;28;20054;-55
2022/11/04 01:02:51;;;;;;;2.83;1.45;;;12.20;99.90;;;;;;5007063;28;20385;-55
2022/11/04 01:05:17;;;;;;;1.98;0.90;;;10.30;99.90;;;;;;5006740;28;20120;-54
2022/11/04 01:07:43;;;;;;;4.85;0.80;;;10.20;99.90;;;;;;5002888;28;20037;-55
2022/11/04 01:10:09;;;;;;;1.80;0.65;;;10.70;99.90;;;;;;5005319;28;20202;-56
2022/11/04 01:12:35;;;;;;;2.83;0.88;;;10.20;99.90;;;;;;5003958;28;20416;-56
2022/11/04 01:15:00;;;;;;;3.25;0.70;;;10.10;99.90;;;;;;5009570;28;20123;-56
2022/11/04 01:17:26;;;;;;;1.65;0.65;;;10.20;99.90;;;;;;5008768;28;20088;-56
2022/11/04 01:19:52;;;;;;;4.25;0.93;;;10.20;99.90;;;;;;4995616;28;20041;-56
2022/11/04 01:22:17;;;;;;;2.58;0.77;;;11.70;99.90;;;;;;5007621;28;20454;-56
2022/11/04 01:24:43;;;;;;;5.78;0.80;;;10.20;99.90;;;;;;5004333;28;20069;-57
2022/11/04 01:27:09;;;;;;;3.17;0.75;;;10.30;99.90;;;;;;5006946;28;20046;-56
2022/11/04 01:29:34;;;;;;;4.20;0.70;;;10.60;99.90;;;;;;5004915;28;20041;-55
2022/11/04 01:32:00;;;;;;;3.55;0.50;;;10.50;99.90;;;;;;5006485;28;21085;-55
2022/11/04 01:34:26;;;;;;;4.47;0.60;;;10.40;99.90;;;;;;5010269;28;20075;-56
2022/11/04 01:36:52;;;;;;;6.57;0.55;;;10.10;99.90;;;;;;5006118;28;20137;-56
2022/11/04 01:39:17;;;;;;;2.00;0.40;;;10.30;99.90;;;;;;5008195;28;20094;-55
2022/11/04 01:41:43;;;;;;;5.90;1.00;;;10.20;99.90;;;;;;5006978;28;20050;-56
2022/11/04 01:44:46;;;;;;;2.33;0.80;;;10.70;99.90;;;;;;5007864;28;20773;-56
2022/11/04 01:47:21;;;;;;;4.90;0.55;;;10.30;99.90;;;;;;5006368;28;20042;-57
2022/11/04 01:49:51;;;;;;;4.05;0.70;;;10.30;99.90;;;;;;5006036;28;20396;-56
2022/11/04 01:52:31;;;;;;;5.45;0.52;;;11.60;99.90;;;;;;5005503;28;20044;-56
2022/11/04 01:55:01;;;;;;;4.72;0.47;;;11.80;99.90;;;;;;5005455;28;20102;-56
2022/11/04 01:57:39;;;;;;;4.82;0.60;;;12.30;99.90;;;;;;5005739;28;20362;-56
2022/11/04 02:00:07;;;;;;;8.73;1.67;;;10.10;99.90;;;;;;5003267;28;20442;-57
2022/11/04 02:02:47;;;;;;;6.60;0.85;;;10.20;99.90;;;;;;5004585;28;20408;-57
2022/11/04 02:05:13;;;;;;;4.68;0.90;;;10.20;99.90;;;;;;5007122;28;20050;-57
2022/11/04 02:07:39;;;;;;;8.38;1.00;;;10.10;99.90;;;;;;5005850;28;20041;-57
2022/11/04 02:10:06;;;;;;;10.25;0.90;;;10.20;99.90;;;;;;5005496;28;20033;-56
2022/11/04 02:12:50;;;;;;;10.98;1.13;;;10.10;99.90;;;;;;5004332;28;20042;-56
2022/11/04 02:15:21;;;;;;;5.43;0.68;;;10.70;99.90;;;;;;5003604;28;21127;-57
2022/11/04 02:18:21;;;;;;;8.93;0.90;;;10.00;99.90;;;;;;5001969;28;20056;-56
2022/11/04 02:21:22;;;;;;;7.57;1.00;;;10.00;99.90;;;;;;5006615;28;20295;-56
2022/11/04 02:24:20;;;;;;;8.65;0.73;;;10.20;99.90;;;;;;5008743;28;20547;-57
2022/11/04 02:27:02;;;;;;;8.07;0.60;;;7.70;99.90;;;;;;5004252;28;20126;-57
2022/11/04 02:30:14;;;;;;;12.30;1.55;;;10.00;99.90;;;;;;5003001;28;20037;-57
2022/11/04 02:33:00;;;;;;;10.32;0.90;;;10.10;99.90;;;;;;5042891;28;21323;-56
2022/11/04 02:35:32;;;;;;;10.30;1.08;;;10.10;99.90;;;;;;5005362;28;20130;-57
2022/11/04 02:38:20;;;;;;;10.50;0.88;;;11.00;99.90;;;;;;5004488;28;20508;-57
2022/11/04 02:41:41;;;;;;;9.30;0.95;;;10.10;99.90;;;;;;5011773;28;20042;-56
2022/11/04 02:44:32;;;;;;;12.35;1.08;;;10.00;99.90;;;;;;5033323;28;20106;-57
2022/11/04 02:47:03;;;;;;;8.60;0.70;;;12.00;99.90;;;;;;5001147;28;20524;-56
2022/11/04 02:49:39;;;;;;;8.00;0.75;;;10.00;99.90;;;;;;5002904;28;20164;-57
2022/11/04 02:52:11;;;;;;;11.18;1.10;;;10.10;99.90;;;;;;5003994;28;20041;-57
2022/11/04 02:54:55;;;;;;;6.53;1.00;;;10.10;99.90;;;;;;5006339;28;20068;-57
2022/11/04 02:57:26;;;;;;;7.60;0.95;;;10.00;99.90;;;;;;5005481;28;20085;-56
2022/11/04 03:00:03;;;;;;;11.43;0.77;;;10.10;99.90;;;;;;5004801;28;20069;-57
2022/11/04 03:02:41;;;;;;;4.18;0.68;;;10.10;99.90;;;;;;5003817;28;20622;-55
2022/11/04 03:05:11;;;;;;;8.20;1.27;;;10.00;99.90;;;;;;5004973;28;20037;-56
2022/11/04 03:07:41;;;;;;;7.35;0.98;;;12.20;99.90;;;;;;4998466;28;20045;-56
2022/11/04 03:10:18;;;;;;;4.32;0.82;;;10.00;99.90;;;;;;5002314;28;20073;-57
2022/11/04 03:12:53;;;;;;;13.48;1.08;;;9.90;99.90;;;;;;5004204;28;20133;-56
2022/11/04 03:15:33;;;;;;;11.80;1.40;;;10.10;99.90;;;;;;5003848;28;20063;-56
2022/11/04 03:18:21;;;;;;;11.00;1.20;;;10.00;99.90;;;;;;5004868;28;20041;-57
2022/11/04 03:20:50;;;;;;;8.60;0.88;;;10.00;99.90;;;;;;5002313;28;20049;-57
2022/11/04 03:23:16;;;;;;;6.40;0.93;;;10.10;99.90;;;;;;5006451;28;20417;-56
2022/11/04 03:25:49;;;;;;;4.85;0.70;;;9.90;99.90;;;;;;5004007;28;20235;-56
2022/11/04 03:28:25;;;;;;;7.53;0.90;;;11.20;99.90;;;;;;5004467;28;20679;-57
2022/11/04 03:30:54;;;;;;;3.03;0.60;;;10.20;99.90;;;;;;5003274;28;20080;-56
2022/11/04 03:33:30;;;;;;;6.30;1.33;;;10.50;99.90;;;;;;4999173;28;20062;-57
2022/11/04 03:35:55;;;;;;;6.32;0.90;;;10.30;99.90;;;;;;5002763;28;20041;-56
2022/11/04 03:38:22;;;;;;;10.38;0.90;;;10.80;99.90;;;;;;5000745;28;20052;-56
2022/11/04 03:40:48;;;;;;;9.77;1.08;;;10.10;99.90;;;;;;5004459;28;20042;-56
2022/11/04 03:43:20;;;;;;;6.60;1.05;;;10.40;99.90;;;;;;4999741;28;20034;-57
2022/11/04 03:45:45;;;;;;;5.83;1.33;;;11.90;99.90;;;;;;5004313;28;21316;-56
2022/11/04 03:48:12;;;;;;;7.03;1.20;;;11.00;99.90;;;;;;5003261;28;20511;-56
2022/11/04 03:50:43;;;;;;;6.28;1.23;;;11.10;99.90;;;;;;5003850;28;20131;-57
2022/11/04 03:53:12;;;;;;;8.63;1.23;;;11.20;99.90;;;;;;5003882;28;20041;-57
2022/11/04 03:55:42;;;;;;;6.57;1.20;;;9.90;99.90;;;;;;5004964;28;20210;-56
2022/11/04 03:58:26;;;;;;;8.30;1.30;;;10.00;99.90;;;;;;5000316;28;20030;-55
2022/11/04 04:01:19;;;;;;;9.23;1.23;;;10.10;99.90;;;;;;5002654;28;20056;-55
2022/11/04 04:04:00;;;;;;;6.68;1.20;;;10.00;99.90;;;;;;4998820;28;20076;-53
2022/11/04 04:06:33;;;;;;;8.63;1.33;;;10.20;99.90;;;;;;5004286;28;20050;-54
2022/11/04 04:09:23;;;;;;;9.23;1.40;;;10.00;99.90;;;;;;5006228;28;20045;-56
2022/11/04 04:12:00;;;;;;;8.27;0.80;;;10.00;99.90;;;;;;5005401;28;20069;-55
2022/11/04 04:14:38;;;;;;;4.75;0.85;;;9.90;99.90;;;;;;5006256;28;20048;-56
2022/11/04 04:17:16;;;;;;;6.90;0.90;;;10.10;99.90;;;;;;5003698;28;20107;-56
2022/11/04 04:20:05;;;;;;;6.28;0.90;;;9.90;99.90;;;;;;5010002;28;20057;-56
2022/11/04 04:22:46;;;;;;;4.90;0.75;;;9.70;99.90;;;;;;5004927;28;20042;-56
2022/11/04 04:27:59;;;;;;;4.10;0.90;;;10.00;99.90;;;;;;5008071;28;20126;-56
2022/11/04 04:30:25;;;;;;;7.22;1.20;;;11.70;99.90;;;;;;5008668;28;20046;-55
2022/11/04 04:32:53;;;;;;;3.30;0.70;;;9.70;99.90;;;;;;5007292;28;20049;-55
2022/11/04 04:35:40;;;;;;;2.60;0.82;;;10.80;99.90;;;;;;5008585;28;20152;-56
2022/11/04 04:47:09;;;;;;;5.60;0.80;;;9.80;99.90;;;;;;5005644;28;20049;-55
2022/11/04 04:49:35;;;;;;;5.28;0.80;;;9.60;99.90;;;;;;5007917;28;20072;-56
2022/11/04 04:52:06;;;;;;;5.03;0.60;;;9.60;99.90;;;;;;5006213;28;20468;-56
2022/11/04 04:54:31;;;;;;;5.22;0.57;;;9.70;99.90;;;;;;5004452;28;20048;-56
2022/11/04 04:56:57;;;;;;;6.22;0.82;;;9.60;99.90;;;;;;5001361;28;20037;-55
2022/11/04 04:59:23;;;;;;;3.67;0.70;;;9.40;99.90;;;;;;5006615;28;20080;-56
2022/11/04 05:01:48;;;;;;;5.50;0.90;;;11.50;99.90;;;;;;5004778;28;20054;-56
2022/11/04 05:04:14;;;;;;;2.17;0.60;;;9.80;99.90;;;;;;5007076;28;20048;-56
2022/11/04 05:06:40;;;;;;;3.00;0.65;;;9.60;99.90;;;;;;5004805;28;20049;-56
2022/11/04 05:09:05;;;;;;;6.90;0.85;;;10.40;99.90;;;;;;5006135;28;20037;-56
2022/11/04 05:11:31;;;;;;;1.85;0.60;;;9.60;99.90;;;;;;5004593;28;20042;-55
2022/11/04 05:13:57;;;;;;;5.10;0.65;;;10.90;99.90;;;;;;5005551;28;22171;-56
2022/11/04 05:16:23;;;;;;;4.47;0.82;;;11.60;99.90;;;;;;5009077;28;20072;-56
2022/11/04 05:18:51;;;;;;;4.13;0.80;;;9.50;99.90;;;;;;5002700;28;20499;-56
2022/11/04 05:21:16;;;;;;;4.43;0.70;;;11.20;99.90;;;;;;5006606;28;20098;-56
2022/11/04 05:23:42;;;;;;;3.13;0.60;;;10.40;99.90;;;;;;5004798;28;20053;-56
2022/11/04 05:26:08;;;;;;;2.33;0.68;;;9.30;99.90;;;;;;5007068;28;20038;-56
2022/11/04 05:28:34;;;;;;;4.13;0.77;;;11.40;99.90;;;;;;5004125;28;20033;-56
2022/11/04 05:31:05;;;;;;;4.80;0.80;;;9.40;99.90;;;;;;5005067;28;20064;-56
2022/11/04 05:33:30;;;;;;;6.75;0.70;;;9.40;99.90;;;;;;5004713;28;20068;-56
2022/11/04 05:36:05;;;;;;;5.85;1.05;;;9.90;99.90;;;;;;5003986;28;20999;-56
2022/11/04 05:38:31;;;;;;;2.78;0.75;;;9.20;99.90;;;;;;5004495;28;20042;-56
2022/11/04 05:40:57;;;;;;;6.25;0.70;;;9.50;99.90;;;;;;5006009;28;20043;-56
2022/11/04 05:43:23;;;;;;;6.45;0.75;;;9.40;99.90;;;;;;5007778;28;20087;-56
2022/11/04 05:45:49;;;;;;;3.85;0.90;;;9.30;99.90;;;;;;5006742;28;20128;-56
2022/11/04 05:48:15;;;;;;;9.38;0.90;;;10.10;99.90;;;;;;5006586;28;20048;-56
2022/11/04 05:50:40;;;;;;;6.55;1.00;;;9.30;99.90;;;;;;5007072;28;20037;-56
2022/11/04 05:53:06;;;;;;;5.47;0.73;;;9.60;99.90;;;;;;5002774;28;20077;-56
2022/11/04 05:55:32;;;;;;;4.22;0.82;;;11.30;99.90;;;;;;5005774;28;20041;-55
2022/11/04 05:57:58;;;;;;;2.97;0.75;;;11.50;99.90;;;;;;5007218;28;20040;-56
2022/11/04 06:00:26;;;;;;;8.00;1.10;;;9.20;99.90;;;;;;5005692;28;20041;-56
2022/11/04 06:02:52;;;;;;;4.03;0.73;;;10.10;99.90;;;;;;5008275;28;20106;-56
2022/11/04 06:05:18;;;;;;;6.85;0.70;;;9.00;99.90;;;;;;5006687;28;20123;-56
2022/11/04 06:07:43;;;;;;;4.43;0.82;;;9.90;99.90;;;;;;5004084;28;20128;-56
2022/11/04 06:10:09;;;;;;;5.60;0.98;;;10.70;99.90;;;;;;5006559;28;20056;-57
2022/11/04 06:12:35;;;;;;;13.23;1.20;;;9.00;99.90;;;;;;5006674;28;20046;-56
2022/11/04 06:15:01;;;;;;;8.48;1.02;;;10.10;99.90;;;;;;5007929;28;20042;-57
2022/11/04 06:17:26;;;;;;;5.53;1.40;;;9.00;99.90;;;;;;5004631;28;20136;-56
2022/11/04 06:19:52;;;;;;;3.58;0.90;;;10.10;99.90;;;;;;5007411;28;20151;-56
2022/11/04 06:22:18;;;;;;;10.88;1.42;;;9.60;99.90;;;;;;5004196;28;20695;-56
2022/11/04 06:24:45;;;;;;;8.45;1.30;;;10.10;99.90;;;;;;5005478;28;20040;-56
2022/11/04 06:27:11;;;;;;;7.47;1.80;;;8.90;99.90;;;;;;5002833;28;20082;-56
2022/11/04 06:29:39;;;;;;;7.00;1.65;;;9.00;99.90;;;;;;5005793;28;20072;-56
2022/11/04 06:32:10;;;;;;;8.73;1.48;;;8.90;99.90;;;;;;5003198;28;20045;-56
2022/11/04 06:34:36;;;;;;;6.72;1.70;;;8.90;99.90;;;;;;5002994;28;20034;-56
2022/11/04 06:37:02;;;;;;;5.40;1.38;;;10.90;99.90;;;;;;5005344;28;20358;-56
2022/11/04 06:39:28;;;;;;;10.02;2.05;;;11.00;99.90;;;;;;5003970;28;20579;-56
2022/11/04 06:41:53;;;;;;;4.63;1.52;;;8.80;99.90;;;;;;5005371;28;21020;-56
2022/11/04 06:44:19;;;;;;;6.00;1.55;;;8.80;99.90;;;;;;5003922;28;20043;-57
2022/11/04 06:46:45;;;;;;;6.18;1.50;;;9.50;99.90;;;;;;5005895;28;20602;-57
2022/11/04 06:49:17;;;;;;;5.38;1.48;;;10.90;99.90;;;;;;5005701;28;20037;-57
2022/11/04 06:51:43;;;;;;;6.65;1.58;;;8.70;99.90;;;;;;5002669;28;20103;-57
2022/11/04 06:54:09;;;;;;;5.60;1.40;;;9.80;99.90;;;;;;5005368;28;20626;-56
2022/11/04 06:56:35;;;;;;;5.10;1.48;;;8.70;99.90;;;;;;5001484;28;20117;-57
2022/11/04 06:59:01;;;;;;;6.75;1.70;;;8.60;99.90;;;;;;5005866;28;20048;-56
2022/11/04 07:01:29;;;;;;;8.35;1.90;;;8.70;99.90;;;;;;5001827;28;20094;-57
2022/11/04 07:03:56;;;;;;;5.55;1.50;;;8.80;99.90;;;;;;5005857;28;20125;-57
2022/11/04 07:06:23;;;;;;;8.15;1.50;;;8.80;99.90;;;;;;5004507;28;20045;-57
2022/11/04 07:08:50;;;;;;;8.15;1.42;;;9.00;99.90;;;;;;5001699;28;20073;-57
2022/11/04 07:11:18;;;;;;;5.90;1.58;;;8.60;99.90;;;;;;5001466;28;20157;-56
2022/11/04 07:13:44;;;;;;;8.05;1.25;;;8.70;99.90;;;;;;4999374;28;20117;-57
2022/11/04 07:16:10;;;;;;;6.10;1.40;;;8.70;99.90;;;;;;5004766;28;20057;-57
2022/11/04 07:18:36;;;;;;;6.43;1.42;;;8.80;99.90;;;;;;5003573;28;20043;-57
2022/11/04 07:21:02;;;;;;;5.95;1.60;;;8.70;99.90;;;;;;5001988;28;20042;-56
2022/11/04 07:23:28;;;;;;;6.00;1.60;;;8.70;99.90;;;;;;5001602;28;20045;-57
2022/11/04 07:25:59;;;;;;;5.00;1.45;;;8.60;99.90;;;;;;5003597;28;20056;-57
2022/11/04 07:28:24;;;;;;;6.43;1.65;;;10.70;99.90;;;;;;5000046;28;20411;-57
2022/11/04 07:30:50;;;;;;;8.40;1.58;;;8.90;99.90;;;;;;5006795;28;20049;-57
2022/11/04 07:33:17;;;;;;;7.45;1.30;;;9.00;99.90;;;;;;5004661;28;20046;-57
2022/11/04 07:35:44;;;;;;;6.53;1.40;;;10.70;99.90;;;;;;5005789;28;20072;-56
2022/11/04 07:38:10;;;;;;;4.40;1.25;;;9.00;99.90;;;;;;5005079;28;20042;-57
2022/11/04 07:40:36;;;;;;;3.90;1.40;;;11.20;99.90;;;;;;5002248;28;20043;-57
2022/11/04 07:43:02;;;;;;;5.75;1.30;;;9.70;99.90;;;;;;5002897;28;20395;-57
2022/11/04 07:45:28;;;;;;;10.93;1.67;;;10.90;99.90;;;;;;5000503;28;20052;-57
2022/11/04 07:47:53;;;;;;;4.75;1.42;;;9.70;99.90;;;;;;5003715;28;20083;-56
2022/11/04 07:50:19;;;;;;;5.85;1.20;;;9.70;99.90;;;;;;5005095;28;20041;-57
2022/11/04 07:52:45;;;;;;;6.65;1.30;;;10.10;99.90;;;;;;5004594;28;20432;-57
2022/11/04 07:55:12;;;;;;;7.72;1.75;;;10.00;99.90;;;;;;5000428;28;20042;-56
2022/11/04 07:57:38;;;;;;;6.43;1.33;;;11.40;99.90;;;;;;5004930;28;20049;-57
2022/11/04 08:00:05;;;;;;;6.57;1.20;;;11.70;99.90;;;;;;5002711;28;20045;-57
2022/11/04 08:02:31;;;;;;;4.20;1.10;;;10.20;99.90;;;;;;5003822;28;20474;-57
2022/11/04 08:04:57;;;;;;;5.53;1.10;;;11.20;99.90;;;;;;5004659;28;20275;-57
2022/11/04 08:07:23;;;;;;;4.63;1.10;;;9.90;99.90;;;;;;5004667;28;20045;-56
2022/11/04 08:09:49;;;;;;;8.25;1.40;;;10.10;99.90;;;;;;5002120;28;20095;-57
2022/11/04 08:12:14;;;;;;;5.95;1.00;;;10.20;99.90;;;;;;5003071;28;20045;-57
2022/11/04 08:14:40;;;;;;;4.70;1.10;;;10.10;99.90;;;;;;5002520;28;20590;-56
2022/11/04 08:17:06;;;;;;;5.90;1.48;;;10.30;99.90;;;;;;5003141;28;20083;-57
2022/11/04 08:19:32;;;;;;;8.00;1.30;;;10.20;99.90;;;;;;5005125;28;20050;-56
2022/11/04 08:21:57;;;;;;;6.95;1.27;;;10.60;99.90;;;;;;5002912;28;20065;-57
2022/11/04 08:24:24;;;;;;;5.28;1.23;;;10.90;99.90;;;;;;5002318;28;20507;-57
2022/11/04 08:26:49;;;;;;;8.35;1.20;;;10.50;99.90;;;;;;5002280;28;20045;-56
2022/11/04 08:29:15;;;;;;;2.95;1.20;;;10.60;99.90;;;;;;5001270;28;20418;-56
2022/11/04 08:31:41;;;;;;;4.72;1.10;;;11.70;99.90;;;;;;5003646;28;20580;-57
2022/11/04 08:34:07;;;;;;;5.70;1.25;;;10.60;99.90;;;;;;5002549;28;20052;-56
2022/11/04 08:36:35;;;;;;;5.05;1.10;;;10.70;99.90;;;;;;5001281;28;20452;-56
2022/11/04 08:39:03;;;;;;;5.85;1.27;;;11.50;99.90;;;;;;5004634;28;20491;-57
2022/11/04 08:41:31;;;;;;;4.82;1.10;;;11.90;99.90;;;;;;5002882;28;21188;-56
2022/11/04 08:43:59;;;;;;;4.93;1.10;;;12.90;99.90;;;;;;5005543;28;20046;-57
2022/11/04 08:46:26;;;;;;;5.72;1.50;;;13.60;93.10;;;;;;5004094;28;20049;-57
2022/11/04 08:48:52;;;;;;;8.13;1.40;;;14.60;81.20;;;;;;5002718;28;20037;-57
2022/11/04 08:51:24;;;;;;;5.47;1.50;;;15.40;61.50;;;;;;5005076;28;20030;-56
2022/11/04 08:53:50;;;;;;;;;;;16.10;26.40;;;;;;5006323;28;20411;-57
2022/11/04 08:56:17;;;;;;;4.47;1.20;;;16.50;1.00;;;;;;5003939;28;19929;-56
2022/11/04 08:58:43;;;;;;;7.55;2.28;;;16.70;1.00;;;;;;5006876;28;20675;-56
2022/11/04 09:01:11;;;;;;;4.45;1.10;;;17.40;1.00;;;;;;5006823;28;20671;-57
2022/11/04 09:03:39;;;;;;;4.43;1.10;;;17.50;1.00;;;;;;5006517;28;20134;-57
2022/11/04 09:06:07;;;;;;;5.00;1.08;;;17.70;1.00;;;;;;5008840;28;20592;-57
2022/11/04 09:08:32;;;;;;;8.60;1.30;;;18.00;1.00;;;;;;5003788;28;20048;-56
2022/11/04 09:10:58;;;;;;;7.32;1.40;;;17.70;99.90;;;;;;5006819;28;20065;-56
2022/11/04 09:13:24;;;;;;;5.22;1.15;;;18.00;99.90;;;;;;5002848;28;20049;-56
2022/11/04 09:15:50;;;;;;;5.20;1.13;;;17.90;99.90;;;;;;5005305;28;20030;-57
2022/11/04 09:18:16;;;;;;;4.78;1.00;;;18.30;99.90;;;;;;5007064;28;20149;-57
2022/11/04 09:20:41;;;;;;;3.97;1.20;;;17.50;99.90;;;;;;5005860;28;20128;-57
2022/11/04 09:23:08;;;;;;;5.38;1.10;;;17.10;1.00;;;;;;5009999;28;20044;-56
2022/11/04 09:25:34;;;;;;;3.88;0.82;;;16.70;1.00;;;;;;5006165;28;20054;-56
2022/11/04 09:28:00;;;;;;;6.60;1.33;;;15.80;1.00;;;;;;5004984;28;20049;-56
2022/11/04 09:30:26;;;;;;;6.30;1.27;;;15.50;1.00;;;;;;5007551;28;20205;-57
2022/11/04 09:32:52;;;;;;;7.28;1.10;;;14.90;1.00;;;;;;5005570;28;20048;-56
2022/11/04 09:35:18;;;;;;;4.95;0.80;;;15.20;1.00;;;;;;5005694;28;20579;-56
2022/11/04 09:37:43;;;;;;;5.60;1.30;;;14.00;19.10;;;;;;5006345;28;20690;-56
2022/11/04 09:40:22;;;;;;;4.88;1.02;;;13.70;32.10;;;;;;5002950;28;20053;-56
2022/11/04 09:43:13;;;;;;;4.82;1.55;;;13.80;51.70;;;;;;5005897;28;20206;-57
2022/11/04 09:45:41;;;;;;;4.25;0.93;;;13.70;47.80;;;;;;5007234;28;20037;-57
2022/11/04 09:48:13;;;;;;;4.30;0.95;;;13.80;48.20;;;;;;5003421;28;20042;-56
2022/11/04 09:50:48;;;;;;;4.97;0.98;;;13.40;45.10;;;;;;5003657;28;20042;-57
2022/11/04 09:53:31;;;;;;;4.22;0.80;;;13.50;53.50;;;;;;5005509;28;20042;-56
2022/11/04 09:56:00;;;;;;;4.57;0.90;;;13.40;64.30;;;;;;4988614;28;20042;-57
2022/11/04 09:58:28;;;;;;;6.50;1.10;;;13.40;70.00;;;;;;5004410;28;20053;-57
2022/11/04 10:01:04;;;;;;;5.97;1.20;;;12.90;75.40;;;;;;5009103;28;20700;-57
2022/11/04 10:03:51;;;;;;;5.13;0.98;;;12.90;77.80;;;;;;5005547;28;20122;-57
2022/11/04 10:06:55;;;;;;;4.45;0.77;;;12.70;74.70;;;;;;5004982;28;20044;-56
2022/11/04 10:09:20;;;;;;;5.65;0.90;;;12.60;82.80;;;;;;5003962;28;20145;-57
2022/11/04 10:12:20;;;;;;;6.55;1.13;;;12.60;86.20;;;;;;5005471;28;20129;-57
2022/11/04 10:14:52;;;;;;;4.80;1.02;;;12.50;85.90;;;;;;5020393;28;20154;-57
2022/11/04 10:17:38;;;;;;;5.28;1.17;;;12.40;87.40;;;;;;5005552;28;20052;-57
2022/11/04 10:20:38;;;;;;;6.97;1.35;;;12.50;81.00;;;;;;5007072;28;20044;-57
2022/11/04 10:23:20;;;;;;;6.93;1.20;;;12.60;73.40;;;;;;5005072;28;20046;-57
2022/11/04 10:25:59;;;;;;;7.20;1.00;;;12.50;78.50;;;;;;5005141;28;20041;-57
2022/11/04 10:28:32;;;;;;;3.85;0.73;;;12.70;78.30;;;;;;5001420;28;20450;-57
2022/11/04 10:30:59;;;;;;;5.53;1.20;;;12.60;73.10;;;;;;5003384;28;20616;-57
2022/11/04 10:33:33;;;;;;;10.05;1.10;;;12.70;75.30;;;;;;5006523;28;20041;-57
2022/11/04 10:36:06;;;;;;;8.82;1.10;;;12.90;76.00;;;;;;5006004;28;20126;-57
2022/11/04 10:38:43;;;;;;;6.13;1.13;;;12.60;77.40;;;;;;5004942;28;20049;-57
2022/11/04 10:41:23;;;;;;;4.47;1.08;;;12.70;66.20;;;;;;5004515;28;20034;-57
2022/11/04 10:43:58;;;;;;;7.40;1.13;;;12.70;66.50;;;;;;5004822;28;20283;-57
2022/11/04 10:46:58;;;;;;;7.07;1.10;;;12.90;72.50;;;;;;5004781;28;20042;-57
2022/11/04 10:49:44;;;;;;;8.20;1.10;;;13.00;79.30;;;;;;5003763;28;20128;-57
2022/11/04 10:52:10;;;;;;;8.32;1.10;;;13.10;71.40;;;;;;5001885;28;20050;-57
2022/11/04 10:54:44;;;;;;;5.00;1.42;;;13.30;77.40;;;;;;5007162;28;20053;-57
2022/11/04 10:57:12;;;;;;;8.48;1.23;;;13.20;69.50;;;;;;5001669;28;20114;-57
2022/11/04 10:59:53;;;;;;;2.63;0.85;;;13.50;70.20;;;;;;5004759;28;20116;-57
2022/11/04 11:02:38;;;;;;;6.43;1.13;;;13.20;60.10;;;;;;5005198;28;20047;-57
2022/11/04 11:05:16;;;;;;;9.15;1.40;;;13.40;64.10;;;;;;5001924;28;20129;-57
2022/11/04 11:07:48;;;;;;;8.52;1.00;;;13.00;59.00;;;;;;5008157;28;20137;-57
2022/11/04 11:10:19;;;;;;;9.35;1.45;;;13.10;62.20;;;;;;5004258;28;20098;-57
2022/11/04 11:13:01;;;;;;;3.85;0.88;;;13.10;67.30;;;;;;5001751;28;20388;-57
2022/11/04 11:15:34;;;;;;;5.32;1.58;;;13.10;62.20;;;;;;5004110;28;20069;-57
2022/11/04 11:18:22;;;;;;;5.50;1.02;;;12.90;55.90;;;;;;5004202;28;20050;-57
2022/11/04 11:20:50;;;;;;;3.88;0.93;;;12.80;59.30;;;;;;5004830;28;20079;-57
2022/11/04 11:23:38;;;;;;;5.65;1.00;;;12.50;66.60;;;;;;5005584;28;20056;-56
2022/11/04 11:26:06;;;;;;;4.53;0.82;;;12.50;70.00;;;;;;5002907;28;20800;-56
2022/11/04 11:28:36;;;;;;;6.68;1.08;;;14.00;69.80;;;;;;5005914;28;20050;-57
2022/11/04 11:31:12;;;;;;;5.78;0.80;;;12.30;67.80;;;;;;5005541;28;20045;-56
2022/11/04 11:33:47;;;;;;;4.82;0.93;;;12.30;62.50;;;;;;5003147;28;20101;-57
2022/11/04 11:36:19;;;;;;;4.15;0.70;;;12.50;61.80;;;;;;5003333;28;20045;-57
2022/11/04 11:39:15;;;;;;;4.47;0.70;;;12.30;59.00;;;;;;5005881;28;20105;-57
2022/11/04 11:42:11;;;;;;;5.60;0.82;;;12.20;47.70;;;;;;5004556;28;20185;-57
2022/11/04 11:44:43;;;;;;;5.25;0.85;;;12.80;66.90;;;;;;5012273;28;20053;-57
2022/11/04 11:47:24;;;;;;;6.93;1.00;;;12.70;78.50;;;;;;5004459;28;20064;-57
2022/11/04 11:50:13;;;;;;;6.85;1.00;;;11.80;89.60;;;;;;5005250;28;20041;-57
2022/11/04 11:52:40;;;;;;;4.25;0.90;;;11.60;94.70;;;;;;5003322;28;20072;-56
2022/11/04 11:55:17;;;;;;;7.45;0.90;;;11.70;96.30;;;;;;5005099;28;20037;-56
2022/11/04 11:58:14;;;;;;;4.13;1.30;;;11.40;96.50;;;;;;5002622;28;20042;-56
2022/11/04 12:01:08;;;;;;;6.13;1.23;;;11.30;98.20;;;;;;5002131;28;20072;-56
2022/11/04 12:03:47;;;;;;;5.25;1.02;;;11.20;99.90;;;;;;5004695;28;20691;-56
2022/11/04 12:06:25;;;;;;;7.65;1.10;;;11.30;99.90;;;;;;5005109;28;20125;-55
2022/11/04 12:08:54;;;;;;;6.60;1.20;;;11.10;99.90;;;;;;5002895;28;20235;-55
2022/11/04 12:11:43;;;;;;;7.18;1.45;;;11.90;99.90;;;;;;5004221;28;20045;-56
2022/11/04 12:14:26;;;;;;;6.93;1.25;;;11.70;99.90;;;;;;5016200;28;20198;-56
2022/11/04 12:17:26;;;;;;;6.93;0.98;;;11.20;99.90;;;;;;4991900;28;20046;-56
2022/11/04 12:20:45;;;;;;;3.20;0.82;;;11.30;99.90;;;;;;5012705;28;20045;-57
2022/11/04 12:23:16;;;;;;;5.40;0.90;;;11.50;99.90;;;;;;5026803;28;20049;-56
2022/11/04 12:26:12;;;;;;;7.57;1.10;;;11.60;99.90;;;;;;4993947;28;20500;-56
2022/11/04 12:29:01;;;;;;;6.38;1.75;;;11.60;99.90;;;;;;5004444;28;20538;-56
2022/11/04 12:31:55;;;;;;;6.07;1.00;;;11.60;99.90;;;;;;5006894;28;20049;-57
2022/11/04 12:34:33;;;;;;;7.05;1.35;;;11.60;99.90;;;;;;5005628;28;20106;-56
2022/11/04 12:37:19;;;;;;;4.68;0.70;;;11.60;99.90;;;;;;5003762;28;20125;-56
2022/11/04 12:40:40;;;;;;;3.72;0.90;;;11.60;99.90;;;;;;5005649;28;20527;-56
2022/11/04 12:43:08;;;;;;;6.80;1.10;;;11.70;99.90;;;;;;5011097;28;20087;-56
2022/11/04 12:45:37;;;;;;;6.70;1.33;;;11.90;99.90;;;;;;5020293;28;20041;-56
2022/11/04 12:48:10;;;;;;;7.32;0.90;;;12.00;99.90;;;;;;5008205;28;20114;-56
2022/11/04 12:51:01;;;;;;;6.20;1.52;;;12.20;99.90;;;;;;5005818;28;20052;-57
2022/11/04 12:53:56;;;;;;;7.25;1.33;;;12.10;97.50;;;;;;5005136;28;20060;-57
2022/11/04 12:56:36;;;;;;;7.18;0.82;;;12.30;97.90;;;;;;5005731;28;20618;-56
2022/11/04 12:59:40;;;;;;;5.97;0.70;;;12.30;97.10;;;;;;5004214;28;20118;-57
2022/11/04 13:02:35;;;;;;;6.18;1.33;;;11.10;93.80;;;;;;5009300;28;20389;-57
2022/11/04 13:05:12;;;;;;;5.82;1.45;;;14.30;95.50;;;;;;5007280;28;20335;-57
2022/11/04 13:07:48;;;;;;;6.97;1.08;;;12.50;94.60;;;;;;5006020;28;20415;-57
2022/11/04 13:10:32;;;;;;;4.82;0.80;;;12.60;90.30;;;;;;5003446;28;20052;-57
2022/11/04 13:13:01;;;;;;;5.97;1.30;;;12.80;91.00;;;;;;5003876;28;20049;-57
2022/11/04 13:15:32;;;;;;;7.03;1.00;;;12.60;91.90;;;;;;5006728;28;20049;-57
2022/11/04 13:18:02;;;;;;;4.72;1.00;;;12.60;92.30;;;;;;5000823;28;20041;-56
2022/11/04 13:20:35;;;;;;;8.75;1.42;;;12.70;88.50;;;;;;5007294;28;20057;-57
2022/11/04 13:23:04;;;;;;;10.32;1.38;;;12.50;84.60;;;;;;5004323;28;20121;-57
2022/11/04 13:25:38;;;;;;;8.05;1.10;;;12.40;85.10;;;;;;5004812;28;20741;-57
2022/11/04 13:28:12;;;;;;;6.03;1.10;;;12.40;89.20;;;;;;5001130;28;20057;-57
2022/11/04 13:31:11;;;;;;;7.78;1.08;;;12.40;88.80;;;;;;5004100;28;20041;-57
2022/11/04 13:33:50;;;;;;;9.43;1.70;;;12.30;79.40;;;;;;5002253;28;20311;-57
2022/11/04 13:36:27;;;;;;;9.18;1.75;;;12.50;87.20;;;;;;5004919;28;20125;-57
2022/11/04 13:39:00;;;;;;;7.10;1.25;;;12.40;90.70;;;;;;5001294;28;20077;-57
2022/11/04 13:41:54;;;;;;;14.98;1.70;;;12.50;83.30;;;;;;5002858;28;20465;-57
2022/11/04 13:44:28;;;;;;;4.88;1.20;;;12.40;74.70;;;;;;5003439;28;20672;-57
2022/11/04 13:46:58;;;;;;;11.02;1.52;;;12.50;76.90;;;;;;5003844;28;20125;-57